Time;durP1;ratioP1;P1;durP2;ratioP2;P2;SDS_P1;SDS_P2;PMS_P1;PMS_P2;Temp;Humidity;BMP_temperature;BMP_pressure;BME280_temperature;BME280_humidity;BME280_pressure;Samples;Min_cycle;Max_cycle;Signal;HPM_P1;HPM_P2
2022/08/17 04:05:45;;;;;;;5.43;4.83;;;16.70;99.90;;;;;;5027599;23;20539;-74
2022/08/17 04:08:11;;;;;;;6.00;5.13;;;16.70;99.90;;;;;;5014495;28;20758;-70
2022/08/17 04:10:38;;;;;;;5.63;5.07;;;16.70;99.90;;;;;;5014595;28;20221;-71
2022/08/17 04:13:03;;;;;;;5.93;5.43;;;16.70;99.90;;;;;;5012513;28;20193;-75
2022/08/17 04:15:30;;;;;;;6.50;4.90;;;16.70;99.90;;;;;;5001171;28;20465;-73
2022/08/17 04:17:55;;;;;;;6.37;5.50;;;16.70;99.90;;;;;;4998572;28;20164;-72
2022/08/17 04:20:22;;;;;;;9.40;5.70;;;16.60;99.90;;;;;;4994760;28;20407;-73
2022/08/17 04:23:08;;;;;;;5.57;5.03;;;16.60;99.90;;;;;;4995596;28;20269;-73
2022/08/17 04:25:36;;;;;;;5.77;5.27;;;16.60;99.90;;;;;;5014570;28;20405;-73
2022/08/17 04:28:02;;;;;;;5.93;5.43;;;16.60;99.90;;;;;;5014296;28;20410;-73
2022/08/17 04:30:30;;;;;;;6.60;6.00;;;16.60;99.90;;;;;;5014115;28;20413;-73
2022/08/17 04:33:06;;;;;;;8.00;6.33;;;16.70;99.90;;;;;;5010609;28;21083;-71
2022/08/17 04:35:40;;;;;;;8.23;5.57;;;16.70;99.90;;;;;;4993795;28;20464;-73
2022/08/17 04:38:08;;;;;;;5.40;4.90;;;16.70;99.90;;;;;;4994672;28;20881;-73
2022/08/17 04:43:21;;;;;;;6.70;5.93;;;16.80;99.90;;;;;;4998238;28;20942;-74
2022/08/17 04:45:50;;;;;;;8.30;5.37;;;16.80;99.90;;;;;;5012758;28;20483;-74
2022/08/17 04:48:16;;;;;;;6.60;5.43;;;16.90;99.90;;;;;;5013825;28;20406;-73
2022/08/17 04:50:46;;;;;;;6.73;6.13;;;16.90;99.90;;;;;;5014014;28;20405;-73
2022/08/17 04:53:12;;;;;;;7.57;5.57;;;16.90;99.90;;;;;;5009865;28;20180;-73
2022/08/17 04:55:38;;;;;;;6.10;4.93;;;16.90;99.90;;;;;;4994176;28;20513;-73
2022/08/17 04:58:04;;;;;;;4.87;4.47;;;16.90;99.90;;;;;;5001690;28;20504;-72
2022/08/17 05:00:30;;;;;;;7.63;5.83;;;17.00;99.90;;;;;;5013179;28;20421;-72
2022/08/17 05:02:55;;;;;;;6.00;5.40;;;17.10;99.90;;;;;;5010993;28;20521;-73
2022/08/17 05:05:26;;;;;;;5.33;4.83;;;17.10;99.90;;;;;;5013275;28;20217;-74
2022/08/17 05:07:53;;;;;;;6.27;5.67;;;17.10;99.90;;;;;;5011316;28;20179;-73
2022/08/17 05:10:23;;;;;;;6.20;5.67;;;17.20;99.90;;;;;;5013730;28;20485;-73
2022/08/17 05:12:58;;;;;;;6.90;6.03;;;17.40;99.90;;;;;;5011956;28;20486;-72
2022/08/17 05:15:23;;;;;;;5.63;5.13;;;17.50;99.90;;;;;;5011243;28;20492;-75
2022/08/17 05:17:49;;;;;;;6.37;5.10;;;17.70;99.90;;;;;;5011480;28;20773;-73
2022/08/17 05:20:15;;;;;;;6.17;5.57;;;17.80;99.90;;;;;;5000511;28;20419;-74
2022/08/17 05:22:49;;;;;;;6.00;5.07;;;17.90;99.90;;;;;;5009329;28;20181;-73
2022/08/17 05:25:18;;;;;;;5.30;4.80;;;18.00;99.90;;;;;;5010628;28;20594;-72
2022/08/17 05:27:44;;;;;;;7.10;6.40;;;18.10;99.90;;;;;;4998308;28;20954;-70
2022/08/17 05:30:10;;;;;;;6.07;5.53;;;18.20;99.90;;;;;;4993833;28;20421;-73
2022/08/17 05:32:36;;;;;;;5.43;4.80;;;18.30;99.90;;;;;;5004508;28;20239;-72
2022/08/17 05:35:03;;;;;;;5.63;5.13;;;18.40;99.90;;;;;;5010398;28;20955;-73
2022/08/17 05:37:29;;;;;;;5.83;5.33;;;18.50;99.90;;;;;;5002718;28;20482;-74
2022/08/17 05:39:55;;;;;;;7.50;6.53;;;18.60;99.90;;;;;;4994176;28;20403;-70
2022/08/17 05:42:21;;;;;;;5.53;5.10;;;18.70;99.90;;;;;;5002188;28;20198;-69
2022/08/17 05:44:46;;;;;;;7.90;6.27;;;18.90;99.90;;;;;;5005839;28;20198;-68
2022/08/17 05:47:12;;;;;;;10.83;5.47;;;19.10;99.90;;;;;;5003971;28;20199;-68
2022/08/17 05:49:37;;;;;;;12.50;5.20;;;19.30;99.90;;;;;;4993754;28;20250;-67
2022/08/17 05:52:19;;;;;;;10.80;6.80;;;19.60;99.90;;;;;;4997980;28;20206;-68
2022/08/17 05:55:09;;;;;;;4.90;4.50;;;20.00;99.90;;;;;;4998309;28;20245;-69
2022/08/17 05:57:42;;;;;;;6.00;5.50;;;20.40;99.90;;;;;;4994292;28;20792;-69
2022/08/17 06:00:31;;;;;;;5.30;4.90;;;20.80;99.90;;;;;;4993748;28;20403;-70
2022/08/17 06:02:59;;;;;;;5.10;4.70;;;21.10;99.90;;;;;;5005117;28;20424;-69
2022/08/17 06:05:52;;;;;;;5.10;4.60;;;21.30;99.90;;;;;;5012192;28;20467;-69
2022/08/17 06:08:33;;;;;;;5.07;4.67;;;21.70;99.90;;;;;;4998108;28;20865;-69
2022/08/17 06:11:26;;;;;;;4.67;4.27;;;22.10;99.90;;;;;;4993585;28;20396;-69
2022/08/17 06:14:13;;;;;;;5.03;4.53;;;22.50;99.90;;;;;;5009176;28;20483;-69
2022/08/17 06:16:43;;;;;;;4.63;4.23;;;22.70;99.90;;;;;;5006922;28;20400;-69
2022/08/17 06:19:26;;;;;;;5.13;4.63;;;22.90;99.80;;;;;;5009350;28;20770;-69
2022/08/17 06:21:53;;;;;;;4.73;4.33;;;22.90;99.10;;;;;;4994522;28;20422;-70
2022/08/17 06:24:33;;;;;;;4.20;3.90;;;22.90;98.30;;;;;;4995233;28;20975;-69
2022/08/17 06:27:21;;;;;;;4.53;4.13;;;22.80;98.00;;;;;;4996883;28;20378;-70
2022/08/17 06:29:51;;;;;;;5.50;4.80;;;22.80;97.80;;;;;;4996755;28;20792;-70
2022/08/17 06:32:17;;;;;;;6.03;5.43;;;22.90;97.80;;;;;;4998852;28;20388;-72
2022/08/17 06:34:45;;;;;;;5.43;5.03;;;22.90;97.40;;;;;;5012838;28;21019;-70
2022/08/17 06:37:47;;;;;;;5.37;4.97;;;22.80;97.80;;;;;;4996925;28;20487;-70
2022/08/17 06:40:13;;;;;;;4.73;4.33;;;22.80;97.50;;;;;;4996472;28;20399;-74
2022/08/17 06:42:47;;;;;;;4.70;4.30;;;22.70;97.60;;;;;;4997979;28;20427;-75
2022/08/17 06:45:21;;;;;;;5.80;4.73;;;22.60;97.90;;;;;;4997262;28;20206;-73
2022/08/17 06:47:52;;;;;;;5.63;4.93;;;22.50;98.10;;;;;;5014324;28;20877;-70
2022/08/17 06:50:34;;;;;;;5.60;5.10;;;22.50;98.50;;;;;;5010419;28;20727;-70
2022/08/17 06:53:24;;;;;;;4.57;4.17;;;22.50;98.70;;;;;;4996198;28;20784;-74
2022/08/17 06:56:09;;;;;;;4.67;4.33;;;22.40;99.20;;;;;;5010589;28;20416;-74
2022/08/17 06:58:36;;;;;;;5.47;4.97;;;22.50;99.20;;;;;;5016575;28;20392;-71
2022/08/17 07:01:16;;;;;;;6.10;5.53;;;22.60;99.40;;;;;;5015888;28;20504;-70
2022/08/17 07:03:56;;;;;;;5.63;5.13;;;22.80;98.80;;;;;;5013435;28;20477;-72
2022/08/17 07:06:26;;;;;;;5.40;4.90;;;23.00;98.10;;;;;;5016012;28;20459;-72
2022/08/17 07:08:57;;;;;;;7.20;6.40;;;23.00;97.80;;;;;;5006454;28;20417;-70
2022/08/17 07:11:38;;;;;;;5.70;5.10;;;23.10;97.40;;;;;;4996054;28;20426;-71
2022/08/17 07:14:11;;;;;;;6.03;5.57;;;23.10;97.70;;;;;;4995380;28;20465;-70
2022/08/17 07:16:47;;;;;;;5.03;4.50;;;23.30;96.70;;;;;;5010356;28;20423;-71
2022/08/17 07:19:16;;;;;;;5.30;4.90;;;23.40;96.40;;;;;;5015342;28;20432;-71
2022/08/17 07:21:59;;;;;;;8.10;5.00;;;23.60;95.80;;;;;;5014483;28;20440;-72
2022/08/17 07:24:43;;;;;;;5.50;4.90;;;23.80;95.50;;;;;;5013154;28;20403;-73
2022/08/17 07:27:20;;;;;;;5.13;4.73;;;24.00;95.30;;;;;;4995574;28;20411;-71
2022/08/17 07:30:03;;;;;;;4.80;4.40;;;24.20;94.10;;;;;;4994341;28;20417;-69
2022/08/17 07:32:34;;;;;;;5.60;5.10;;;24.40;94.20;;;;;;4995482;28;20415;-70
2022/08/17 07:35:11;;;;;;;8.33;4.80;;;24.60;93.70;;;;;;4994869;28;20505;-69
2022/08/17 07:37:38;;;;;;;5.17;4.77;;;25.00;93.50;;;;;;4995539;28;20409;-72
2022/08/17 07:40:33;;;;;;;5.17;4.67;;;25.50;93.20;;;;;;4995565;28;20449;-69
2022/08/17 07:43:17;;;;;;;4.00;3.70;;;26.20;92.10;;;;;;5013009;28;20833;-70
2022/08/17 07:48:41;;;;;;;10.30;4.80;;;28.60;86.90;;;;;;4995557;28;20456;-68
2022/08/17 07:51:24;;;;;;;4.67;4.27;;;29.70;81.20;;;;;;4993817;28;20411;-69
2022/08/17 07:53:53;;;;;;;5.10;4.70;;;30.70;76.30;;;;;;4994763;28;20473;-70
2022/08/17 07:56:39;;;;;;;3.90;3.63;;;31.70;72.70;;;;;;5001999;28;20447;-69
2022/08/17 07:59:15;;;;;;;4.37;3.97;;;32.70;67.60;;;;;;4997778;28;20469;-70
2022/08/17 08:01:45;;;;;;;5.23;4.90;;;33.40;65.80;;;;;;4995057;28;20382;-70
2022/08/17 08:04:26;;;;;;;4.70;4.40;;;33.90;63.70;;;;;;4995763;28;20437;-70
2022/08/17 08:06:54;;;;;;;5.20;4.90;;;33.80;60.50;;;;;;4994990;28;20891;-70
2022/08/17 08:09:40;;;;;;;5.47;4.97;;;32.90;61.50;;;;;;4994772;28;20450;-69
2022/08/17 08:12:23;;;;;;;4.57;4.27;;;32.00;64.20;;;;;;4998554;28;20393;-70
2022/08/17 08:15:17;;;;;;;5.13;4.57;;;31.50;65.70;;;;;;5005107;28;20474;-71
2022/08/17 08:17:54;;;;;;;4.73;4.43;;;31.10;66.40;;;;;;5010438;28;20468;-71
2022/08/17 08:20:48;;;;;;;5.20;4.80;;;30.90;66.90;;;;;;5001044;28;20393;-71
2022/08/17 08:23:34;;;;;;;4.70;4.40;;;30.50;67.60;;;;;;4982802;28;20393;-72
2022/08/17 08:26:09;;;;;;;5.80;5.30;;;30.10;69.20;;;;;;5001074;28;20752;-70
2022/08/17 08:28:44;;;;;;;4.20;3.90;;;29.50;70.50;;;;;;4994680;28;20419;-72
2022/08/17 08:31:34;;;;;;;5.27;4.87;;;29.00;71.90;;;;;;4995074;28;20443;-71
2022/08/17 08:34:17;;;;;;;4.50;4.20;;;28.60;73.40;;;;;;5004675;28;20428;-72
2022/08/17 08:37:13;;;;;;;4.27;3.97;;;28.30;75.80;;;;;;5000390;28;20792;-71
2022/08/17 08:39:44;;;;;;;4.20;3.93;;;28.10;76.40;;;;;;4994278;28;20378;-71
2022/08/17 08:42:33;;;;;;;4.37;4.00;;;28.20;76.00;;;;;;4994305;28;20378;-71
2022/08/17 08:44:58;;;;;;;5.13;4.77;;;28.10;76.40;;;;;;4994291;28;20440;-71
2022/08/17 08:47:43;;;;;;;4.17;3.83;;;28.10;76.90;;;;;;5011065;28;20928;-71
2022/08/17 08:50:15;;;;;;;4.77;4.37;;;28.10;76.90;;;;;;5013966;28;20167;-71
2022/08/17 08:52:43;;;;;;;8.83;4.50;;;28.00;76.50;;;;;;5004469;28;20770;-70
2022/08/17 08:55:37;;;;;;;5.77;5.27;;;27.90;76.60;;;;;;4993794;28;20523;-71
2022/08/17 08:58:13;;;;;;;6.70;5.43;;;27.70;77.60;;;;;;4994537;28;20413;-72
2022/08/17 09:00:46;;;;;;;5.47;5.00;;;27.50;78.10;;;;;;4994251;28;20767;-72
2022/08/17 09:03:38;;;;;;;5.60;5.10;;;27.40;78.70;;;;;;5006164;28;20750;-71
2022/08/17 09:06:16;;;;;;;4.83;4.40;;;27.30;79.20;;;;;;4992811;28;20453;-71
2022/08/17 09:08:59;;;;;;;5.60;5.13;;;27.30;79.60;;;;;;4994206;28;20453;-71
2022/08/17 09:11:37;;;;;;;4.30;4.00;;;27.20;79.80;;;;;;4994286;28;20432;-72
2022/08/17 09:14:20;;;;;;;5.17;4.73;;;27.10;79.90;;;;;;4994592;28;20529;-71
2022/08/17 09:17:01;;;;;;;4.77;4.37;;;27.00;80.10;;;;;;5013573;28;20468;-72
2022/08/17 09:19:38;;;;;;;4.90;4.50;;;27.00;80.50;;;;;;4993915;28;20386;-73
2022/08/17 09:22:29;;;;;;;5.30;4.80;;;26.90;81.00;;;;;;4997386;28;20455;-71
2022/08/17 09:25:09;;;;;;;4.97;4.67;;;26.80;81.60;;;;;;4993788;28;20744;-71
2022/08/17 09:27:41;;;;;;;4.80;4.50;;;26.70;82.10;;;;;;4993871;28;20909;-72
2022/08/17 09:30:09;;;;;;;5.93;5.23;;;26.50;82.60;;;;;;5009882;28;20415;-72
2022/08/17 09:32:40;;;;;;;9.00;7.93;;;26.40;82.80;;;;;;5009412;28;20427;-72
2022/08/17 09:35:14;;;;;;;7.40;6.17;;;26.40;83.20;;;;;;4993470;28;20433;-71
2022/08/17 09:38:18;;;;;;;7.03;6.20;;;26.50;83.70;;;;;;4994050;28;20505;-72
2022/08/17 09:40:51;;;;;;;5.30;4.90;;;26.50;83.30;;;;;;5013465;28;20448;-72
2022/08/17 09:43:32;;;;;;;4.80;4.40;;;26.50;83.20;;;;;;5012665;28;20419;-71
2022/08/17 09:46:07;;;;;;;4.87;4.47;;;26.50;83.70;;;;;;5011307;28;20421;-70
2022/08/17 09:49:06;;;;;;;4.93;4.13;;;26.50;84.50;;;;;;4993826;28;20850;-69
2022/08/17 09:51:42;;;;;;;7.30;6.00;;;26.50;84.40;;;;;;4998388;28;20424;-70
2022/08/17 09:54:24;;;;;;;6.07;5.57;;;26.30;84.50;;;;;;5012797;28;20460;-69
2022/08/17 09:57:17;;;;;;;5.57;5.17;;;26.20;84.60;;;;;;5013220;28;20381;-69
2022/08/17 09:59:52;;;;;;;4.57;4.20;;;26.20;84.90;;;;;;5010882;28;20422;-69
2022/08/17 10:02:20;;;;;;;5.23;4.70;;;26.30;85.70;;;;;;4996322;28;20408;-72
2022/08/17 10:05:16;;;;;;;5.13;4.73;;;26.30;86.60;;;;;;4997872;28;20496;-70
2022/08/17 10:07:58;;;;;;;5.53;5.13;;;26.20;84.90;;;;;;5001436;28;20499;-72
2022/08/17 10:10:30;;;;;;;5.67;5.17;;;26.30;85.00;;;;;;5015253;28;20458;-72
2022/08/17 10:13:18;;;;;;;5.60;4.10;;;26.30;86.00;;;;;;5015305;28;20432;-71
2022/08/17 10:16:13;;;;;;;4.80;4.50;;;26.40;84.60;;;;;;5016647;28;20457;-71
2022/08/17 10:19:08;;;;;;;5.47;4.27;;;26.50;84.40;;;;;;5016508;28;20433;-72
2022/08/17 10:27:25;;;;;;;5.40;4.63;;;26.80;83.70;;;;;;5005660;28;20463;-73
2022/08/17 10:30:03;;;;;;;4.70;4.20;;;26.90;83.90;;;;;;5016142;28;20762;-75
2022/08/17 10:32:32;;;;;;;4.77;4.30;;;27.20;83.70;;;;;;5015983;28;20447;-73
2022/08/17 10:35:24;;;;;;;5.33;4.90;;;27.40;83.60;;;;;;5014383;28;20583;-72
2022/08/17 10:38:18;;;;;;;4.57;4.27;;;27.70;83.30;;;;;;5015453;28;20847;-71
2022/08/17 10:40:50;;;;;;;5.40;4.20;;;27.80;80.60;;;;;;5015894;28;20527;-73
2022/08/17 10:43:28;;;;;;;3.93;3.63;;;27.90;79.40;;;;;;5015581;28;20437;-74
2022/08/17 10:46:11;;;;;;;3.60;3.40;;;27.80;80.60;;;;;;5015860;28;20408;-71
2022/08/17 10:48:38;;;;;;;3.73;3.43;;;27.70;78.30;;;;;;4997277;28;20430;-71
2022/08/17 10:51:35;;;;;;;4.80;4.30;;;27.80;78.80;;;;;;4996471;28;20774;-71
2022/08/17 10:54:02;;;;;;;3.80;3.50;;;27.90;79.10;;;;;;4996028;28;20827;-72
2022/08/17 10:56:59;;;;;;;7.10;3.83;;;28.00;79.10;;;;;;4997676;28;20399;-71
2022/08/17 10:59:49;;;;;;;4.17;3.87;;;28.10;78.30;;;;;;4983125;28;20473;-70
2022/08/17 11:02:18;;;;;;;5.40;4.90;;;28.20;77.40;;;;;;5008272;28;20404;-71
2022/08/17 11:05:05;;;;;;;11.40;9.73;;;28.20;77.20;;;;;;5015417;28;20536;-71
2022/08/17 11:07:53;;;;;;;6.80;6.20;;;28.10;75.90;;;;;;5006342;28;20966;-71
2022/08/17 11:10:37;;;;;;;4.40;4.10;;;28.00;74.70;;;;;;4995177;28;20455;-71
2022/08/17 11:13:26;;;;;;;3.40;3.10;;;27.90;74.80;;;;;;4995539;28;20414;-71
2022/08/17 11:16:13;;;;;;;3.43;3.23;;;27.90;75.10;;;;;;4996202;28;20468;-69
2022/08/17 11:19:15;;;;;;;4.30;3.90;;;27.90;75.00;;;;;;5013069;28;20429;-72
2022/08/17 11:22:28;;;;;;;5.30;3.70;;;28.00;74.70;;;;;;5013479;28;20434;-71
2022/08/17 11:24:55;;;;;;;4.10;3.53;;;28.00;74.20;;;;;;4980879;28;20450;-70
2022/08/17 11:27:31;;;;;;;4.20;3.83;;;28.00;74.70;;;;;;5004147;28;20446;-72
2022/08/17 11:30:06;;;;;;;4.00;3.40;;;27.80;76.00;;;;;;5015486;28;20520;-71
2022/08/17 11:32:43;;;;;;;3.43;3.23;;;27.60;77.20;;;;;;5014309;28;20485;-72
2022/08/17 11:35:11;;;;;;;3.50;3.30;;;27.20;78.30;;;;;;4995548;28;20467;-69
2022/08/17 11:38:03;;;;;;;3.77;3.47;;;26.90;79.60;;;;;;4995519;28;20410;-70
2022/08/17 11:41:16;;;;;;;3.30;3.00;;;26.60;80.90;;;;;;4995932;28;20474;-72
2022/08/17 11:44:14;;;;;;;3.53;3.23;;;26.30;82.60;;;;;;4949870;28;20405;-72
2022/08/17 11:53:36;;;;;;;2.63;2.43;;;25.70;86.20;;;;;;4995670;28;20452;-69
2022/08/17 11:56:29;;;;;;;4.10;3.80;;;25.60;87.20;;;;;;5001103;28;20469;-69
2022/08/17 11:58:55;;;;;;;4.00;3.70;;;25.60;88.90;;;;;;4996193;28;20397;-68
2022/08/17 12:01:25;;;;;;;4.57;3.90;;;25.50;90.00;;;;;;5007656;28;20473;-68
2022/08/17 12:03:55;;;;;;;3.13;2.93;;;25.40;90.00;;;;;;5014199;28;20412;-67
2022/08/17 12:06:40;;;;;;;3.40;3.20;;;25.40;90.00;;;;;;4995062;28;20415;-68
2022/08/17 12:09:17;;;;;;;3.40;3.07;;;25.50;89.50;;;;;;5012795;28;20429;-68
2022/08/17 12:12:11;;;;;;;3.83;3.50;;;25.60;89.40;;;;;;5013734;28;20420;-69
2022/08/17 12:14:39;;;;;;;4.03;3.57;;;25.70;89.40;;;;;;5014002;28;20486;-70
2022/08/17 12:17:10;;;;;;;3.20;3.00;;;25.80;87.70;;;;;;5013845;28;20398;-69
2022/08/17 12:19:37;;;;;;;3.80;3.50;;;25.80;86.90;;;;;;5005004;28;20930;-68
2022/08/17 12:22:16;;;;;;;3.27;2.97;;;26.00;86.50;;;;;;5000681;28;20426;-68
2022/08/17 12:24:55;;;;;;;3.20;3.00;;;26.20;85.90;;;;;;5004979;28;20450;-68
2022/08/17 12:27:32;;;;;;;5.03;3.10;;;26.50;85.50;;;;;;5014238;28;20454;-69
2022/08/17 12:30:04;;;;;;;3.47;3.17;;;26.80;84.80;;;;;;5005154;28;20407;-68
2022/08/17 12:32:34;;;;;;;3.17;2.97;;;27.10;84.00;;;;;;5013084;28;20396;-69
2022/08/17 12:35:02;;;;;;;2.77;2.57;;;27.40;82.50;;;;;;5013718;28;20461;-71
2022/08/17 12:37:30;;;;;;;3.37;3.10;;;27.50;78.00;;;;;;5013656;28;20754;-70
2022/08/17 12:40:21;;;;;;;3.27;3.07;;;27.60;77.80;;;;;;5013964;28;20409;-70
2022/08/17 12:43:00;;;;;;;2.90;2.70;;;27.70;77.90;;;;;;4996244;28;20402;-71
2022/08/17 12:45:32;;;;;;;2.80;2.60;;;27.90;76.10;;;;;;4994270;28;20417;-74
2022/08/17 12:48:12;;;;;;;3.40;3.10;;;28.00;76.60;;;;;;4994415;28;20766;-73
2022/08/17 12:50:43;;;;;;;2.93;2.73;;;28.00;75.40;;;;;;4994525;28;20728;-69
2022/08/17 12:53:15;;;;;;;2.90;2.70;;;28.00;74.40;;;;;;5012743;28;20396;-69
2022/08/17 12:55:43;;;;;;;2.70;2.50;;;28.00;74.30;;;;;;5013864;28;20819;-70
2022/08/17 12:58:32;;;;;;;3.63;3.40;;;28.00;74.40;;;;;;5013732;28;20380;-72
2022/08/17 13:01:10;;;;;;;3.73;3.43;;;28.10;75.80;;;;;;5012425;28;20452;-76
2022/08/17 13:03:42;;;;;;;3.70;3.40;;;28.20;74.50;;;;;;4992499;28;20492;-75
2022/08/17 13:06:10;;;;;;;2.97;2.73;;;28.30;72.90;;;;;;4993406;28;20433;-71
2022/08/17 13:08:46;;;;;;;4.27;3.40;;;28.50;72.10;;;;;;4994029;28;20405;-73
2022/08/17 13:11:17;;;;;;;7.13;3.40;;;28.50;71.80;;;;;;4994208;28;20404;-74
2022/08/17 13:13:49;;;;;;;2.80;2.60;;;28.50;72.50;;;;;;4993429;28;20426;-79
2022/08/17 13:16:21;;;;;;;3.23;3.03;;;28.30;72.90;;;;;;4992143;28;20392;-73
2022/08/17 13:19:02;;;;;;;3.10;2.80;;;28.20;72.00;;;;;;4991830;28;20424;-76
2022/08/17 13:21:29;;;;;;;3.43;3.23;;;28.10;69.90;;;;;;4990535;28;20902;-77
2022/08/17 13:24:02;;;;;;;3.87;3.57;;;28.10;70.80;;;;;;4990536;28;20423;-75
2022/08/17 13:26:40;;;;;;;3.00;2.80;;;28.20;71.00;;;;;;4992224;28;20418;-74
2022/08/17 13:29:22;;;;;;;3.40;3.10;;;28.20;70.10;;;;;;5005213;28;20433;-74
2022/08/17 13:31:53;;;;;;;4.20;3.80;;;28.30;69.20;;;;;;5012140;28;20755;-75
2022/08/17 13:34:25;;;;;;;3.30;3.07;;;28.40;69.10;;;;;;5014981;28;20507;-75
2022/08/17 13:37:12;;;;;;;4.90;3.30;;;28.50;68.80;;;;;;5017197;28;20387;-73
2022/08/17 13:39:43;;;;;;;3.40;3.10;;;28.50;67.00;;;;;;4998355;28;20447;-72
2022/08/17 13:42:50;;;;;;;5.20;3.47;;;28.40;68.00;;;;;;4997571;28;20382;-74
2022/08/17 13:45:30;;;;;;;3.50;3.30;;;28.50;66.50;;;;;;4997368;28;20406;-74
2022/08/17 13:48:08;;;;;;;3.57;3.27;;;28.70;64.20;;;;;;5000647;28;20428;-75
2022/08/17 13:50:53;;;;;;;3.33;3.13;;;28.70;64.80;;;;;;5017013;28;20419;-73
2022/08/17 13:53:22;;;;;;;3.20;3.00;;;28.60;65.40;;;;;;5001791;28;20394;-72
2022/08/17 13:55:52;;;;;;;3.73;3.43;;;28.70;66.30;;;;;;5011115;28;20497;-74
2022/08/17 13:58:24;;;;;;;5.20;3.40;;;28.80;65.20;;;;;;4997432;28;20487;-74
2022/08/17 14:00:50;;;;;;;4.67;4.30;;;29.00;64.10;;;;;;4997604;28;20425;-72
2022/08/17 14:03:17;;;;;;;4.13;3.23;;;29.00;63.10;;;;;;4996933;28;20437;-74
2022/08/17 14:05:44;;;;;;;3.40;3.10;;;29.00;63.30;;;;;;4997099;28;20228;-73
2022/08/17 14:08:12;;;;;;;4.00;3.70;;;29.10;63.10;;;;;;5015833;28;20980;-73
2022/08/17 14:10:37;;;;;;;3.40;3.10;;;29.20;63.50;;;;;;5011821;28;20403;-71
2022/08/17 14:13:06;;;;;;;3.50;3.30;;;29.20;62.30;;;;;;5016626;28;20858;-74
2022/08/17 14:15:33;;;;;;;3.50;3.20;;;29.20;62.20;;;;;;5016321;28;20205;-71
2022/08/17 14:17:59;;;;;;;3.27;2.93;;;29.20;60.80;;;;;;5002727;28;20392;-73
2022/08/17 14:20:24;;;;;;;3.33;3.10;;;29.10;60.30;;;;;;4996553;28;20417;-72
2022/08/17 14:22:54;;;;;;;3.50;3.30;;;29.10;60.80;;;;;;4996848;28;20459;-74
2022/08/17 14:25:26;;;;;;;3.27;3.07;;;29.20;60.70;;;;;;5011380;28;20214;-73
2022/08/17 14:27:52;;;;;;;5.03;3.80;;;29.20;61.20;;;;;;5004828;28;20517;-75
2022/08/17 14:30:23;;;;;;;3.77;3.47;;;29.40;60.90;;;;;;5015120;28;20392;-72
2022/08/17 14:32:50;;;;;;;3.87;3.57;;;29.40;61.30;;;;;;5002691;28;20427;-72
2022/08/17 14:35:16;;;;;;;3.60;3.30;;;29.60;60.80;;;;;;4996690;28;20449;-71
2022/08/17 14:37:44;;;;;;;3.27;3.07;;;29.60;61.20;;;;;;4995465;28;20506;-72
2022/08/17 14:40:12;;;;;;;3.30;3.10;;;29.70;60.70;;;;;;5005551;28;20397;-71
2022/08/17 14:42:39;;;;;;;3.87;3.57;;;29.70;60.70;;;;;;5015098;28;20874;-72
2022/08/17 14:45:08;;;;;;;3.53;3.23;;;29.70;61.10;;;;;;5015961;28;20796;-73
2022/08/17 14:47:35;;;;;;;3.00;2.80;;;29.70;59.70;;;;;;5014318;28;20450;-72
2022/08/17 14:50:03;;;;;;;2.93;2.73;;;29.60;59.70;;;;;;5016037;28;20396;-73
2022/08/17 14:52:29;;;;;;;3.60;3.40;;;29.60;59.30;;;;;;5014231;28;20412;-72
2022/08/17 14:54:54;;;;;;;3.20;3.00;;;29.60;59.30;;;;;;5015966;28;20461;-72
2022/08/17 14:57:22;;;;;;;3.50;3.30;;;29.50;59.70;;;;;;5015930;28;20173;-71
2022/08/17 14:59:50;;;;;;;3.40;3.20;;;29.50;59.80;;;;;;5008308;28;20175;-71
2022/08/17 15:02:16;;;;;;;3.00;2.80;;;29.50;60.00;;;;;;4996315;28;20505;-72
2022/08/17 15:04:46;;;;;;;2.70;2.50;;;29.50;60.90;;;;;;4996271;28;20523;-72
2022/08/17 15:07:13;;;;;;;3.43;3.13;;;29.50;60.90;;;;;;4996087;28;20398;-71
2022/08/17 15:09:39;;;;;;;3.30;3.00;;;29.50;61.30;;;;;;4994943;28;20404;-72
2022/08/17 15:12:05;;;;;;;3.90;3.60;;;29.50;61.00;;;;;;5003718;28;20426;-71
2022/08/17 15:14:32;;;;;;;3.37;3.07;;;29.50;60.80;;;;;;5015154;28;20605;-71
2022/08/17 15:16:58;;;;;;;3.03;2.83;;;29.50;60.90;;;;;;5014522;28;20376;-73
2022/08/17 15:19:24;;;;;;;6.10;5.47;;;29.50;60.70;;;;;;5002923;28;20503;-70
2022/08/17 15:21:50;;;;;;;6.03;5.53;;;29.60;60.90;;;;;;5013366;28;20425;-70
2022/08/17 15:24:15;;;;;;;6.30;3.97;;;29.50;61.20;;;;;;5014927;28;20285;-70
2022/08/17 15:26:41;;;;;;;3.60;3.30;;;29.50;61.10;;;;;;5014638;28;20399;-70
2022/08/17 15:29:08;;;;;;;2.87;2.67;;;29.40;61.30;;;;;;4995559;28;20234;-72
2022/08/17 15:31:33;;;;;;;3.90;3.37;;;29.40;61.10;;;;;;4998651;28;20197;-72
2022/08/17 15:33:59;;;;;;;2.80;2.60;;;29.40;60.80;;;;;;5008190;28;20467;-71
2022/08/17 15:36:25;;;;;;;3.10;2.90;;;29.40;61.00;;;;;;4995453;28;20178;-72
2022/08/17 15:38:51;;;;;;;3.40;3.10;;;29.40;61.10;;;;;;4995426;28;20625;-72
2022/08/17 15:41:17;;;;;;;3.83;3.53;;;29.30;59.50;;;;;;4995026;28;20175;-71
2022/08/17 15:43:48;;;;;;;3.70;3.10;;;29.30;59.70;;;;;;4993976;28;20873;-71
2022/08/17 15:46:23;;;;;;;4.73;3.30;;;29.30;59.90;;;;;;4995367;28;20508;-71
2022/08/17 15:48:59;;;;;;;3.67;3.30;;;29.30;60.70;;;;;;4996419;28;20407;-72
2022/08/17 15:51:26;;;;;;;3.43;3.20;;;29.20;60.30;;;;;;4995225;28;20410;-70
2022/08/17 15:53:58;;;;;;;3.90;3.60;;;29.20;60.10;;;;;;4994285;28;20948;-72
2022/08/17 15:56:24;;;;;;;3.80;3.50;;;29.10;60.00;;;;;;4994502;28;20384;-71
2022/08/17 15:58:50;;;;;;;3.60;3.30;;;29.00;60.50;;;;;;4994764;28;20418;-75
2022/08/17 16:01:18;;;;;;;3.33;3.13;;;28.80;60.80;;;;;;4996036;28;20472;-74
2022/08/17 16:03:44;;;;;;;3.87;3.57;;;28.70;60.90;;;;;;4994738;28;20508;-74
2022/08/17 16:06:11;;;;;;;3.53;3.23;;;28.70;61.20;;;;;;4994730;28;20431;-70
2022/08/17 16:08:37;;;;;;;3.40;3.10;;;28.60;61.50;;;;;;4994504;28;20447;-71
2022/08/17 16:11:03;;;;;;;4.07;3.37;;;28.60;62.00;;;;;;4995795;28;20407;-71
2022/08/17 16:13:30;;;;;;;4.17;3.00;;;28.50;62.40;;;;;;4994299;28;20460;-71
2022/08/17 16:15:55;;;;;;;2.90;2.70;;;28.50;63.00;;;;;;4995253;28;20460;-70
2022/08/17 16:18:22;;;;;;;4.23;3.93;;;28.50;63.60;;;;;;5001816;28;20404;-75
2022/08/17 16:20:48;;;;;;;8.53;4.70;;;28.50;63.90;;;;;;5013867;28;20187;-69
2022/08/17 16:23:14;;;;;;;3.30;2.80;;;28.50;64.10;;;;;;5013709;28;20410;-70
2022/08/17 16:25:44;;;;;;;3.13;2.93;;;28.40;64.60;;;;;;5012953;28;21180;-72
2022/08/17 16:28:09;;;;;;;3.33;3.03;;;28.40;65.10;;;;;;5012970;28;20437;-72
2022/08/17 16:30:36;;;;;;;3.47;3.17;;;28.40;65.60;;;;;;5012939;28;21278;-72
2022/08/17 16:33:02;;;;;;;3.00;2.80;;;28.30;66.10;;;;;;5013461;28;20177;-71
2022/08/17 16:35:27;;;;;;;3.10;2.87;;;28.10;66.60;;;;;;5013837;28;20452;-72
2022/08/17 16:37:55;;;;;;;3.50;3.20;;;28.00;67.20;;;;;;5012642;28;20427;-73
2022/08/17 16:40:24;;;;;;;3.60;3.20;;;27.90;68.00;;;;;;5004638;28;20196;-75
2022/08/17 16:42:50;;;;;;;3.97;3.67;;;27.70;68.20;;;;;;4992840;28;20390;-72
2022/08/17 16:45:19;;;;;;;3.67;3.37;;;27.70;68.80;;;;;;4994003;28;20434;-71
2022/08/17 16:47:45;;;;;;;3.30;3.10;;;27.60;68.80;;;;;;5010855;28;20835;-72
2022/08/17 16:50:14;;;;;;;3.57;3.37;;;27.50;69.50;;;;;;5013581;28;20501;-71
2022/08/17 16:52:40;;;;;;;3.20;3.00;;;27.50;69.90;;;;;;5013336;28;20384;-68
2022/08/17 16:55:08;;;;;;;3.80;3.50;;;27.40;70.10;;;;;;5013345;28;20603;-70
2022/08/17 16:57:36;;;;;;;3.20;3.00;;;27.30;71.30;;;;;;4997947;28;20446;-70
2022/08/17 17:00:06;;;;;;;3.40;3.17;;;27.30;72.00;;;;;;4992638;28;20439;-70
2022/08/17 17:02:35;;;;;;;3.57;3.37;;;27.10;72.10;;;;;;4993466;28;20777;-69
2022/08/17 17:05:01;;;;;;;5.80;2.80;;;27.10;72.40;;;;;;4993683;28;20451;-70
2022/08/17 17:07:48;;;;;;;4.10;3.70;;;27.00;72.20;;;;;;5006924;28;20412;-70
2022/08/17 17:10:23;;;;;;;3.90;3.60;;;26.90;72.60;;;;;;5013292;28;20452;-68
2022/08/17 17:12:51;;;;;;;3.77;3.37;;;26.80;72.30;;;;;;5011812;28;20783;-67
2022/08/17 17:15:17;;;;;;;4.43;2.83;;;26.70;71.30;;;;;;5013202;28;20831;-67
2022/08/17 17:17:48;;;;;;;3.30;3.10;;;26.60;71.20;;;;;;4997513;28;20510;-70
2022/08/17 17:20:44;;;;;;;3.20;3.00;;;26.50;71.30;;;;;;4993642;28;20410;-69
2022/08/17 17:23:36;;;;;;;2.80;2.60;;;26.40;71.60;;;;;;4988393;28;21006;-70
2022/08/17 17:26:39;;;;;;;3.70;3.40;;;26.40;72.20;;;;;;4995376;28;20469;-70
2022/08/17 17:29:22;;;;;;;8.93;3.20;;;26.40;73.00;;;;;;5013321;28;20475;-71
2022/08/17 17:32:12;;;;;;;4.30;4.00;;;26.20;74.60;;;;;;4997551;28;20789;-71
2022/08/17 17:34:40;;;;;;;3.77;3.47;;;26.10;75.30;;;;;;4993325;28;20452;-71
2022/08/17 17:37:12;;;;;;;3.90;3.67;;;26.10;76.20;;;;;;5003701;28;20465;-71
2022/08/17 17:39:47;;;;;;;3.97;3.67;;;25.90;77.80;;;;;;5013442;28;20384;-71
2022/08/17 17:42:19;;;;;;;3.70;3.40;;;25.90;79.20;;;;;;5013715;28;20388;-71
2022/08/17 17:44:51;;;;;;;3.73;3.43;;;25.80;79.30;;;;;;5011893;28;20932;-71
2022/08/17 17:47:17;;;;;;;4.93;4.50;;;25.80;79.30;;;;;;5001486;28;20821;-70